Time;durP1;ratioP1;P1;durP2;ratioP2;P2;SDS_P1;SDS_P2;PMS_P1;PMS_P2;Temp;Humidity;BMP_temperature;BMP_pressure;BME280_temperature;BME280_humidity;BME280_pressure;Samples;Min_cycle;Max_cycle;Signal;HPM_P1;HPM_P2
2021/10/06 00:02:10;;;;;;;26.30;8.93;;;435.90;1920.00;;;;;;5050018;28;20491;-69
2021/10/06 00:04:36;;;;;;;23.40;7.90;;;435.90;1920.00;;;;;;5050053;28;20016;-69
2021/10/06 00:07:02;;;;;;;22.63;7.95;;;435.90;1920.00;;;;;;5053162;28;20020;-69
2021/10/06 00:09:28;;;;;;;17.92;7.20;;;435.90;1920.00;;;;;;5052925;28;20047;-69
2021/10/06 00:11:54;;;;;;;24.88;7.97;;;435.90;1920.00;;;;;;5054138;28;20089;-69
2021/10/06 00:14:20;;;;;;;28.65;8.25;;;435.90;1920.00;;;;;;5040712;28;20395;-69
2021/10/06 00:16:46;;;;;;;25.13;10.13;;;435.90;1920.00;;;;;;5035566;28;20132;-69
2021/10/06 00:19:12;;;;;;;20.92;8.15;;;435.90;1920.00;;;;;;5048656;28;20025;-69
2021/10/06 00:21:38;;;;;;;25.42;8.65;;;435.90;1920.00;;;;;;5045816;28;20037;-69
2021/10/06 00:24:04;;;;;;;28.70;8.27;;;435.90;1920.00;;;;;;5049189;28;20029;-69
2021/10/06 00:26:30;;;;;;;33.03;8.88;;;435.80;1920.00;;;;;;5053228;28;20044;-69
2021/10/06 00:28:56;;;;;;;17.75;7.40;;;435.80;1920.00;;;;;;5057756;28;20029;-70
2021/10/06 00:31:22;;;;;;;20.67;7.25;;;435.80;1920.00;;;;;;5053721;28;20025;-69
2021/10/06 00:33:47;;;;;;;23.05;9.43;;;435.80;1920.00;;;;;;5053767;28;20052;-69
2021/10/06 00:36:13;;;;;;;23.90;8.00;;;435.90;1920.00;;;;;;5053341;28;20479;-69
2021/10/06 00:38:39;;;;;;;22.60;8.82;;;435.80;1945.60;;;;;;5035272;28;20094;-69
2021/10/06 00:41:05;;;;;;;22.00;7.45;;;435.80;1945.60;;;;;;5053495;28;20020;-69
2021/10/06 00:43:31;;;;;;;18.02;7.15;;;435.80;1945.60;;;;;;5053912;28;20476;-69
2021/10/06 00:45:57;;;;;;;26.67;8.73;;;435.80;1945.60;;;;;;5053496;28;20033;-69
2021/10/06 00:48:22;;;;;;;19.38;7.75;;;435.80;1945.60;;;;;;5053001;28;20028;-69
2021/10/06 00:50:48;;;;;;;18.50;7.65;;;435.80;1945.60;;;;;;5053445;28;20017;-69
2021/10/06 00:53:14;;;;;;;29.00;8.60;;;435.70;1971.20;;;;;;5053441;28;20384;-70
2021/10/06 00:55:40;;;;;;;24.77;7.75;;;435.70;1971.20;;;;;;5049190;28;20079;-70
2021/10/06 00:58:07;;;;;;;13.82;6.70;;;435.90;1971.20;;;;;;5036391;28;20116;-70
2021/10/06 01:00:33;;;;;;;19.10;7.97;;;435.70;1971.20;;;;;;5051893;28;20025;-70
2021/10/06 01:03:00;;;;;;;27.92;8.52;;;435.70;1996.80;;;;;;5051969;28;20029;-70
2021/10/06 01:05:26;;;;;;;21.40;7.90;;;435.60;1996.80;;;;;;5053270;28;20112;-70
2021/10/06 01:07:52;;;;;;;16.98;7.50;;;435.60;1996.80;;;;;;5050659;28;20059;-69
2021/10/06 01:10:18;;;;;;;24.25;7.15;;;435.60;2022.40;;;;;;5053538;28;20029;-69
2021/10/06 01:12:43;;;;;;;18.95;6.53;;;435.60;2022.40;;;;;;5049149;28;20822;-70
2021/10/06 01:15:12;;;;;;;19.00;6.78;;;435.60;2022.40;;;;;;5035304;28;20037;-70
2021/10/06 01:17:38;;;;;;;17.75;6.60;;;435.50;2022.40;;;;;;5053368;28;20037;-70
2021/10/06 01:20:07;;;;;;;26.40;7.53;;;435.50;2048.00;;;;;;5053089;28;20124;-70
2021/10/06 01:22:33;;;;;;;15.02;6.63;;;435.50;2048.00;;;;;;5030357;28;20017;-70
2021/10/06 01:25:00;;;;;;;20.33;9.88;;;435.50;2048.00;;;;;;5035204;28;20542;-69
2021/10/06 01:27:27;;;;;;;14.27;6.30;;;435.50;2048.00;;;;;;5052943;28;20027;-69
2021/10/06 01:29:53;;;;;;;23.42;7.68;;;435.50;2048.00;;;;;;5053084;28;21102;-71
2021/10/06 01:32:19;;;;;;;23.48;6.45;;;435.50;2073.60;;;;;;5049324;28;20464;-70
2021/10/06 01:34:57;;;;;;;16.50;6.97;;;435.40;2073.60;;;;;;5046006;28;20021;-70
2021/10/06 01:37:23;;;;;;;13.30;6.35;;;435.40;2073.60;;;;;;5045112;28;20026;-70
2021/10/06 01:39:49;;;;;;;12.13;5.65;;;435.40;2073.60;;;;;;5053304;28;20044;-70
2021/10/06 01:42:14;;;;;;;16.63;6.70;;;435.40;2073.60;;;;;;5042929;28;20492;-70
2021/10/06 01:44:40;;;;;;;20.98;7.38;;;435.40;2073.60;;;;;;5051919;28;20040;-70
2021/10/06 01:47:06;;;;;;;17.08;6.80;;;435.40;2073.60;;;;;;5051403;28;20055;-69
2021/10/06 01:49:32;;;;;;;23.45;6.85;;;435.40;2073.60;;;;;;5034010;28;20064;-70
2021/10/06 01:51:57;;;;;;;18.92;6.45;;;435.40;2073.60;;;;;;5052330;28;20040;-69
2021/10/06 01:54:23;;;;;;;15.05;6.70;;;435.40;2099.20;;;;;;5048325;28;20021;-70
2021/10/06 01:56:49;;;;;;;18.60;7.70;;;435.40;2099.20;;;;;;5048405;28;20021;-70
2021/10/06 01:59:14;;;;;;;17.63;7.07;;;435.40;2099.20;;;;;;5051793;28;20025;-70
2021/10/06 02:01:41;;;;;;;16.30;5.75;;;435.40;2099.20;;;;;;5048678;28;20025;-70
2021/10/06 02:04:07;;;;;;;16.35;6.80;;;435.40;2099.20;;;;;;5051511;28;20061;-70
2021/10/06 02:06:33;;;;;;;17.98;6.63;;;435.40;2099.20;;;;;;5034065;28;20437;-70
2021/10/06 02:08:59;;;;;;;14.02;6.85;;;435.40;2099.20;;;;;;5043780;28;20032;-70
2021/10/06 02:11:24;;;;;;;26.63;7.28;;;435.40;2099.20;;;;;;5064175;28;20052;-70
2021/10/06 02:13:50;;;;;;;11.05;6.25;;;435.40;2099.20;;;;;;5071177;28;20017;-71
2021/10/06 02:16:16;;;;;;;15.57;6.85;;;435.40;2099.20;;;;;;5065176;28;20044;-70
2021/10/06 02:18:42;;;;;;;13.27;5.78;;;435.40;2099.20;;;;;;5051036;28;20021;-70
2021/10/06 02:21:07;;;;;;;15.07;6.82;;;435.40;2099.20;;;;;;5051382;28;20024;-70
2021/10/06 02:23:33;;;;;;;14.13;6.75;;;435.40;2099.20;;;;;;5047017;28;20021;-69
2021/10/06 02:25:59;;;;;;;17.92;6.90;;;435.20;2099.20;;;;;;5046657;28;20021;-70
2021/10/06 02:28:25;;;;;;;23.55;7.15;;;435.30;2099.20;;;;;;5051557;28;20460;-70
2021/10/06 02:30:51;;;;;;;21.05;7.30;;;435.30;2099.20;;;;;;5043859;28;20036;-70
2021/10/06 02:33:17;;;;;;;15.35;7.07;;;435.20;2099.20;;;;;;5050988;28;20033;-69
2021/10/06 02:35:42;;;;;;;16.88;7.45;;;435.20;2099.20;;;;;;5050313;28;20499;-69
2021/10/06 02:38:08;;;;;;;14.95;6.68;;;435.20;2099.20;;;;;;5051273;28;20025;-70
2021/10/06 02:40:34;;;;;;;24.95;7.68;;;435.20;2099.20;;;;;;5050784;28;20096;-70
2021/10/06 02:43:00;;;;;;;17.60;6.03;;;435.20;2099.20;;;;;;5051629;28;20100;-70
2021/10/06 02:45:26;;;;;;;17.08;6.75;;;435.20;2099.20;;;;;;5048193;28;20182;-70
2021/10/06 02:47:51;;;;;;;25.40;8.02;;;435.20;2099.20;;;;;;5051087;28;20536;-70
2021/10/06 02:50:21;;;;;;;26.67;9.57;;;435.20;2099.20;;;;;;5050950;28;20025;-70
2021/10/06 02:52:47;;;;;;;17.63;6.97;;;435.20;2099.20;;;;;;5050578;28;20020;-70
2021/10/06 02:55:13;;;;;;;19.40;6.57;;;435.20;2099.20;;;;;;5051503;28;20485;-70
2021/10/06 02:57:39;;;;;;;18.20;7.72;;;435.20;2099.20;;;;;;5055951;28;20045;-70
2021/10/06 03:00:08;;;;;;;15.57;6.93;;;435.20;2073.60;;;;;;5049494;28;20110;-69
2021/10/06 03:02:35;;;;;;;23.95;6.70;;;435.20;2073.60;;;;;;5050060;28;20383;-69
2021/10/06 03:05:02;;;;;;;30.55;8.60;;;435.20;2099.20;;;;;;5050647;28;20464;-69
2021/10/06 03:07:28;;;;;;;27.58;8.68;;;435.20;2073.60;;;;;;5048953;28;20040;-68
2021/10/06 03:09:54;;;;;;;20.27;8.43;;;435.20;2073.60;;;;;;5044587;28;20025;-68
2021/10/06 03:12:19;;;;;;;25.92;7.57;;;435.20;2073.60;;;;;;5048907;28;20422;-69
2021/10/06 03:14:45;;;;;;;17.63;6.53;;;435.20;2073.60;;;;;;5049487;28;20021;-69
2021/10/06 03:17:11;;;;;;;20.73;7.95;;;435.20;2073.60;;;;;;5048375;28;20515;-69
2021/10/06 03:19:37;;;;;;;18.08;6.65;;;435.20;2073.60;;;;;;5048538;28;20025;-69
2021/10/06 03:22:02;;;;;;;20.45;8.02;;;435.20;2073.60;;;;;;5045507;28;20072;-69
2021/10/06 03:24:28;;;;;;;17.05;6.72;;;435.20;2073.60;;;;;;5048179;28;20032;-69
2021/10/06 03:26:54;;;;;;;19.70;7.38;;;435.20;2073.60;;;;;;5049635;28;20329;-69
2021/10/06 03:29:20;;;;;;;22.52;6.28;;;435.20;2073.60;;;;;;5049331;28;20036;-69
2021/10/06 03:31:45;;;;;;;20.40;7.20;;;435.20;2073.60;;;;;;5048441;28;20036;-69
2021/10/06 03:34:11;;;;;;;17.08;7.25;;;435.20;2073.60;;;;;;5030254;28;20074;-69
2021/10/06 03:36:37;;;;;;;17.58;7.03;;;435.20;2073.60;;;;;;5043752;28;20017;-69
2021/10/06 03:39:03;;;;;;;24.85;7.10;;;435.20;2073.60;;;;;;5031079;28;20021;-69
2021/10/06 03:41:28;;;;;;;22.38;7.53;;;435.20;2073.60;;;;;;5049726;28;20033;-69
2021/10/06 03:43:54;;;;;;;28.77;7.90;;;435.20;2073.60;;;;;;5046877;28;20036;-70
2021/10/06 03:46:20;;;;;;;28.50;7.32;;;410.50;2073.60;;;;;;5049207;28;20048;-70
2021/10/06 03:48:46;;;;;;;20.95;7.53;;;410.50;2124.80;;;;;;5049767;28;20472;-70
2021/10/06 03:51:12;;;;;;;33.83;8.75;;;410.40;2124.80;;;;;;5049332;28;20131;-69
2021/10/06 03:53:39;;;;;;;20.38;7.00;;;410.30;2124.80;;;;;;5049845;28;20048;-70
2021/10/06 03:56:05;;;;;;;24.08;9.15;;;410.30;2099.20;;;;;;5052058;28;20111;-70
2021/10/06 03:58:30;;;;;;;25.13;7.88;;;410.30;2099.20;;;;;;5050576;28;20104;-70
2021/10/06 04:00:56;;;;;;;21.17;8.77;;;410.30;2124.80;;;;;;5049359;28;20018;-69
2021/10/06 04:03:22;;;;;;;25.65;6.80;;;410.30;2099.20;;;;;;5028978;28;20472;-69
2021/10/06 04:05:48;;;;;;;26.40;8.43;;;410.40;2099.20;;;;;;5043023;28;20096;-69
2021/10/06 04:08:14;;;;;;;26.55;6.72;;;410.40;2099.20;;;;;;5041066;28;20037;-69
2021/10/06 04:10:40;;;;;;;23.13;7.28;;;410.40;2124.80;;;;;;5048626;28;20020;-69
2021/10/06 04:13:05;;;;;;;34.42;8.05;;;410.30;2124.80;;;;;;5049370;28;20541;-68
2021/10/06 04:15:32;;;;;;;21.98;7.18;;;410.30;2124.80;;;;;;5041936;28;20029;-69
2021/10/06 04:17:58;;;;;;;30.15;6.03;;;410.20;2124.80;;;;;;5044036;28;20096;-69
2021/10/06 04:20:24;;;;;;;17.42;7.13;;;410.20;2124.80;;;;;;5047437;28;20430;-69
2021/10/06 04:22:49;;;;;;;18.65;6.68;;;410.20;2124.80;;;;;;5048343;28;20029;-69
2021/10/06 04:25:15;;;;;;;32.30;7.43;;;410.20;2150.40;;;;;;5031041;28;20040;-69
2021/10/06 04:27:41;;;;;;;22.55;7.35;;;410.20;2150.40;;;;;;5048599;28;20089;-69
2021/10/06 04:30:08;;;;;;;19.45;7.10;;;410.10;2150.40;;;;;;5049161;28;20036;-69
2021/10/06 04:32:34;;;;;;;19.33;8.20;;;410.10;2150.40;;;;;;5052059;28;20453;-69
2021/10/06 04:35:01;;;;;;;15.75;6.90;;;410.10;2150.40;;;;;;5052919;28;20025;-69
2021/10/06 04:37:26;;;;;;;16.83;7.65;;;410.10;2150.40;;;;;;5047792;28;20017;-69
2021/10/06 04:39:52;;;;;;;16.38;6.68;;;410.00;2176.00;;;;;;5048250;28;20017;-69
2021/10/06 04:42:18;;;;;;;18.27;6.65;;;409.90;2176.00;;;;;;5048993;28;20044;-69
2021/10/06 04:44:44;;;;;;;18.73;6.97;;;409.90;2176.00;;;;;;5046272;28;20052;-69
2021/10/06 04:47:10;;;;;;;15.20;6.30;;;409.80;2176.00;;;;;;5049368;28;20477;-69
2021/10/06 04:49:35;;;;;;;12.60;6.45;;;409.80;2176.00;;;;;;5051507;28;20056;-69
2021/10/06 04:52:01;;;;;;;19.20;5.88;;;409.80;2201.60;;;;;;5053555;28;20068;-69
2021/10/06 04:54:27;;;;;;;20.30;6.15;;;409.80;2201.60;;;;;;5050378;28;20364;-69
2021/10/06 04:56:53;;;;;;;11.80;5.65;;;409.70;2201.60;;;;;;5053330;28;20020;-69
2021/10/06 04:59:19;;;;;;;9.63;5.90;;;409.70;2201.60;;;;;;5052612;28;20137;-69
2021/10/06 05:01:44;;;;;;;14.00;6.18;;;409.80;2201.60;;;;;;5053356;28;20020;-69
2021/10/06 05:04:10;;;;;;;19.58;7.22;;;409.70;2201.60;;;;;;5053283;28;20060;-70
2021/10/06 05:06:36;;;;;;;16.38;6.20;;;409.70;2201.60;;;;;;5054696;28;20048;-70
2021/10/06 05:09:02;;;;;;;11.85;6.22;;;409.70;2201.60;;;;;;5053705;28;20029;-69
2021/10/06 05:11:29;;;;;;;21.38;6.88;;;409.80;2201.60;;;;;;5054889;28;20017;-70
2021/10/06 05:13:55;;;;;;;15.27;6.88;;;409.80;2201.60;;;;;;5052342;28;20031;-69
2021/10/06 05:16:21;;;;;;;11.70;6.10;;;409.80;2201.60;;;;;;5052218;28;20073;-69
2021/10/06 05:18:46;;;;;;;16.10;6.38;;;409.80;2201.60;;;;;;5036490;28;20087;-69
2021/10/06 05:21:12;;;;;;;13.27;6.15;;;409.80;2201.60;;;;;;5054785;28;20037;-68
2021/10/06 05:23:38;;;;;;;14.85;6.07;;;409.80;2201.60;;;;;;5047294;28;20096;-68
2021/10/06 05:26:04;;;;;;;17.50;5.93;;;409.80;2201.60;;;;;;5048313;28;20109;-69
2021/10/06 05:28:29;;;;;;;11.57;5.55;;;409.90;2201.60;;;;;;5034630;28;20029;-69
2021/10/06 05:30:55;;;;;;;12.82;6.10;;;409.80;2201.60;;;;;;5052403;28;20459;-69
2021/10/06 05:33:24;;;;;;;14.52;6.28;;;409.80;2201.60;;;;;;5034089;28;20044;-69
2021/10/06 05:35:50;;;;;;;20.25;6.35;;;409.80;2201.60;;;;;;5052271;28;20096;-69
2021/10/06 05:38:16;;;;;;;17.73;5.43;;;409.80;2201.60;;;;;;5051818;28;20112;-69
2021/10/06 05:40:42;;;;;;;16.95;7.10;;;409.80;2201.60;;;;;;5034434;28;20036;-69
2021/10/06 05:43:12;;;;;;;15.82;6.03;;;409.80;2201.60;;;;;;5034100;28;20055;-69
2021/10/06 05:45:39;;;;;;;15.25;6.40;;;409.80;2201.60;;;;;;5033376;28;20029;-69
2021/10/06 05:48:05;;;;;;;27.20;7.15;;;409.80;2201.60;;;;;;5050697;28;20031;-69
2021/10/06 05:50:31;;;;;;;8.90;5.47;;;409.80;2201.60;;;;;;5054244;28;20031;-69
2021/10/06 05:52:59;;;;;;;19.02;6.32;;;409.80;2201.60;;;;;;5044115;28;20033;-69
2021/10/06 05:55:25;;;;;;;18.55;6.10;;;409.80;2201.60;;;;;;5051254;28;20039;-69
2021/10/06 05:57:52;;;;;;;22.73;7.32;;;409.80;2201.60;;;;;;5050867;28;20033;-69
2021/10/06 06:00:18;;;;;;;20.85;6.55;;;409.90;2201.60;;;;;;5052745;28;20063;-69
2021/10/06 06:02:47;;;;;;;10.73;7.43;;;409.90;2201.60;;;;;;5047152;28;20480;-68
2021/10/06 06:05:14;;;;;;;10.98;5.80;;;409.90;2201.60;;;;;;5050320;28;20052;-69
2021/10/06 06:07:40;;;;;;;24.45;7.15;;;410.00;2201.60;;;;;;5050959;28;20083;-68
2021/10/06 06:10:07;;;;;;;13.35;5.63;;;410.00;2176.00;;;;;;5050820;28;20468;-69
2021/10/06 06:12:32;;;;;;;19.13;6.53;;;410.00;2176.00;;;;;;5047861;28;20029;-69
2021/10/06 06:14:58;;;;;;;10.93;5.90;;;410.00;2176.00;;;;;;5048662;28;20021;-69
2021/10/06 06:17:24;;;;;;;14.38;6.50;;;410.00;2176.00;;;;;;5050803;28;20106;-69
2021/10/06 06:19:49;;;;;;;23.10;7.28;;;410.00;2176.00;;;;;;5050578;28;20045;-68
2021/10/06 06:22:15;;;;;;;18.52;6.18;;;410.00;2176.00;;;;;;5050413;28;20550;-68
2021/10/06 06:24:41;;;;;;;10.07;5.20;;;410.00;2176.00;;;;;;5047598;28;20029;-69
2021/10/06 06:27:07;;;;;;;16.30;6.80;;;409.90;2176.00;;;;;;5048946;28;20029;-69
2021/10/06 06:29:34;;;;;;;17.88;6.53;;;409.80;2176.00;;;;;;5047449;28;20025;-68
2021/10/06 06:32:00;;;;;;;11.82;5.22;;;409.80;2201.60;;;;;;5049102;28;20033;-68
2021/10/06 06:34:26;;;;;;;14.05;6.05;;;409.80;2201.60;;;;;;5051399;28;20452;-68
2021/10/06 06:36:52;;;;;;;15.27;6.53;;;409.80;2201.60;;;;;;5049357;28;20398;-68
2021/10/06 06:39:18;;;;;;;17.02;6.57;;;409.80;2201.60;;;;;;5060382;28;20039;-69
2021/10/06 06:41:43;;;;;;;25.50;7.25;;;409.80;2201.60;;;;;;5073621;28;20064;-69
2021/10/06 06:44:09;;;;;;;16.70;8.20;;;409.80;2201.60;;;;;;5073897;28;20049;-70
2021/10/06 06:46:36;;;;;;;15.88;6.95;;;409.80;2201.60;;;;;;5052644;28;20037;-69
2021/10/06 06:49:03;;;;;;;20.60;8.40;;;409.70;2201.60;;;;;;5047875;28;20079;-69
2021/10/06 06:51:29;;;;;;;14.15;7.35;;;409.70;2201.60;;;;;;5055226;28;20037;-69
2021/10/06 06:53:55;;;;;;;17.20;9.75;;;409.60;2201.60;;;;;;5053517;28;20108;-69
2021/10/06 06:56:22;;;;;;;21.00;10.55;;;409.60;2201.60;;;;;;5033691;28;20041;-68
2021/10/06 06:58:49;;;;;;;20.15;10.30;;;409.60;2227.20;;;;;;5032141;28;20024;-69
2021/10/06 07:01:18;;;;;;;24.92;12.80;;;409.60;2227.20;;;;;;5050098;28;20021;-68
2021/10/06 07:03:44;;;;;;;22.65;12.85;;;409.60;2227.20;;;;;;5045827;28;20017;-68
2021/10/06 07:06:10;;;;;;;20.13;11.50;;;409.60;2227.20;;;;;;5050325;28;20032;-68
2021/10/06 07:08:36;;;;;;;21.08;10.75;;;409.60;2227.20;;;;;;5050360;28;20029;-68
2021/10/06 07:11:01;;;;;;;26.10;10.98;;;409.60;2227.20;;;;;;5032971;28;20021;-68
2021/10/06 07:13:28;;;;;;;20.65;9.75;;;409.60;2227.20;;;;;;5042633;28;20025;-68
2021/10/06 07:15:54;;;;;;;21.77;11.18;;;409.60;2227.20;;;;;;5046390;28;20039;-68
2021/10/06 07:18:19;;;;;;;21.25;9.13;;;409.60;2227.20;;;;;;5031615;28;20029;-68
2021/10/06 07:20:45;;;;;;;18.63;9.20;;;409.60;2227.20;;;;;;5049785;28;20024;-68
2021/10/06 07:23:11;;;;;;;18.95;9.65;;;409.60;2227.20;;;;;;5031676;28;20400;-68
2021/10/06 07:25:37;;;;;;;24.33;9.73;;;409.60;2227.20;;;;;;5049739;28;20677;-69
2021/10/06 07:28:03;;;;;;;17.27;8.73;;;409.60;2227.20;;;;;;5049458;28;20536;-68
2021/10/06 07:30:29;;;;;;;26.70;9.32;;;409.60;2252.80;;;;;;5048429;28;20653;-68
2021/10/06 07:32:57;;;;;;;28.35;11.10;;;409.60;2227.20;;;;;;5045949;28;20498;-68
2021/10/06 07:35:23;;;;;;;22.95;11.95;;;409.60;2252.80;;;;;;5047910;28;20032;-68
2021/10/06 07:37:49;;;;;;;24.40;11.25;;;409.60;2252.80;;;;;;5049318;28;20017;-68
2021/10/06 07:40:15;;;;;;;24.02;11.70;;;409.70;2252.80;;;;;;5046575;28;20385;-69
2021/10/06 07:42:41;;;;;;;16.38;11.05;;;409.80;2252.80;;;;;;5048894;28;20492;-68
2021/10/06 07:45:08;;;;;;;20.75;10.35;;;409.80;2252.80;;;;;;5048703;28;20053;-68
2021/10/06 07:47:34;;;;;;;20.48;9.98;;;409.70;2252.80;;;;;;5048892;28;20401;-69
2021/10/06 07:50:00;;;;;;;20.08;10.00;;;409.80;2252.80;;;;;;5049278;28;20025;-69
2021/10/06 07:52:26;;;;;;;19.38;9.38;;;409.90;2252.80;;;;;;5048557;28;20096;-69
2021/10/06 07:54:52;;;;;;;21.98;10.73;;;410.00;2252.80;;;;;;5048793;28;20037;-69
2021/10/06 07:57:18;;;;;;;21.67;10.35;;;410.10;2252.80;;;;;;5050312;28;20021;-68
2021/10/06 07:59:43;;;;;;;23.58;10.63;;;410.30;2227.20;;;;;;5049193;28;20013;-69
2021/10/06 08:02:10;;;;;;;24.13;10.77;;;410.30;2227.20;;;;;;5042705;28;20113;-69
2021/10/06 08:04:37;;;;;;;22.77;11.82;;;410.20;2252.80;;;;;;5047591;28;20033;-68
2021/10/06 08:07:03;;;;;;;18.13;10.95;;;410.20;2252.80;;;;;;5049276;28;20017;-68
2021/10/06 08:09:29;;;;;;;19.52;10.55;;;410.20;2252.80;;;;;;5046095;28;20064;-69
2021/10/06 08:11:55;;;;;;;25.30;9.70;;;410.20;2278.40;;;;;;5046329;28;20036;-68
2021/10/06 08:14:21;;;;;;;38.50;8.88;;;410.30;2278.40;;;;;;5047461;28;20047;-68
2021/10/06 08:16:47;;;;;;;19.27;7.95;;;410.40;2252.80;;;;;;5047346;28;20099;-68
2021/10/06 08:19:13;;;;;;;20.58;7.13;;;410.50;2252.80;;;;;;5029954;28;20061;-69
2021/10/06 08:21:39;;;;;;;15.43;6.05;;;435.20;2252.80;;;;;;5048748;28;20044;-68
2021/10/06 08:24:05;;;;;;;20.77;7.07;;;435.40;2227.20;;;;;;5050460;28;20032;-68
2021/10/06 08:26:31;;;;;;;11.30;5.85;;;435.50;2227.20;;;;;;5051298;28;20047;-68
2021/10/06 08:28:56;;;;;;;13.90;6.55;;;435.40;2252.80;;;;;;5050949;28;20459;-68
2021/10/06 08:31:23;;;;;;;12.35;5.85;;;435.40;2252.80;;;;;;5051174;28;20402;-68
2021/10/06 08:33:49;;;;;;;15.57;6.15;;;435.40;2252.80;;;;;;5048166;28;20071;-68
2021/10/06 08:36:15;;;;;;;19.52;6.60;;;435.20;2252.80;;;;;;5051392;28;20066;-68
2021/10/06 08:38:41;;;;;;;19.02;7.05;;;410.50;2304.00;;;;;;5048040;28;20018;-68
2021/10/06 08:41:07;;;;;;;16.25;6.78;;;410.30;2304.00;;;;;;5050450;28;20028;-68
2021/10/06 08:43:34;;;;;;;17.10;7.88;;;410.10;2329.60;;;;;;5049882;28;20151;-68
2021/10/06 08:46:00;;;;;;;26.70;8.80;;;410.10;2355.20;;;;;;5049451;28;20041;-68
2021/10/06 08:48:27;;;;;;;13.55;6.82;;;409.90;2355.20;;;;;;5051356;28;20036;-68
2021/10/06 08:50:53;;;;;;;21.98;8.70;;;409.60;2355.20;;;;;;5031160;28;20760;-68
2021/10/06 08:53:19;;;;;;;19.50;7.88;;;384.90;2329.60;;;;;;5033155;28;20033;-68
2021/10/06 08:55:45;;;;;;;14.35;7.18;;;384.70;2329.60;;;;;;5050647;28;20044;-68
2021/10/06 08:58:11;;;;;;;19.08;7.68;;;384.70;2329.60;;;;;;5049322;28;20525;-68
2021/10/06 09:01:19;;;;;;;17.08;7.65;;;384.50;2329.60;;;;;;5051291;28;20108;-68
2021/10/06 09:03:52;;;;;;;12.10;6.93;;;384.40;2329.60;;;;;;4951496;29;20039;-68
2021/10/06 09:06:18;;;;;;;20.23;8.23;;;384.50;2329.60;;;;;;4952226;28;20481;-68
2021/10/06 09:08:45;;;;;;;17.83;8.52;;;384.30;2329.60;;;;;;4951747;29;20058;-68
2021/10/06 09:11:13;;;;;;;16.83;8.40;;;384.20;2329.60;;;;;;4950721;29;20752;-68
2021/10/06 09:13:42;;;;;;;13.77;9.43;;;384.10;2329.60;;;;;;4950553;29;20035;-68
2021/10/06 09:16:09;;;;;;;15.85;8.88;;;384.20;2329.60;;;;;;4946168;29;20609;-69
2021/10/06 09:18:36;;;;;;;26.45;11.35;;;384.00;2329.60;;;;;;4931293;29;20024;-68
2021/10/06 09:21:07;;;;;;;18.40;8.48;;;384.00;2329.60;;;;;;4931109;29;20147;-68
2021/10/06 09:23:39;;;;;;;13.70;7.50;;;384.00;2329.60;;;;;;4930573;29;20023;-68
2021/10/06 09:26:12;;;;;;;20.73;8.90;;;384.00;2329.60;;;;;;4931531;29;20063;-68
2021/10/06 09:28:43;;;;;;;17.05;9.45;;;384.00;2329.60;;;;;;4931159;29;20459;-69
2021/10/06 09:31:16;;;;;;;17.83;8.80;;;384.00;2329.60;;;;;;4931730;29;20083;-68
2021/10/06 09:33:56;;;;;;;18.63;9.15;;;359.30;2329.60;;;;;;4929012;29;20083;-68
2021/10/06 09:36:32;;;;;;;15.20;9.55;;;359.20;2329.60;;;;;;4930651;29;20032;-68
2021/10/06 09:38:59;;;;;;;17.88;8.95;;;359.20;2329.60;;;;;;4950944;28;20030;-69
2021/10/06 09:41:45;;;;;;;18.35;9.15;;;359.30;2329.60;;;;;;5008710;28;20022;-69
2021/10/06 09:44:20;;;;;;;15.18;9.80;;;384.00;2329.60;;;;;;5005014;28;20026;-69
2021/10/06 09:46:50;;;;;;;20.67;9.48;;;384.00;2329.60;;;;;;5008136;28;20045;-69
2021/10/06 09:49:38;;;;;;;13.02;8.80;;;384.00;2329.60;;;;;;5008988;28;20029;-69
2021/10/06 09:52:21;;;;;;;23.10;9.88;;;384.00;2329.60;;;;;;5010142;28;20436;-69
2021/10/06 09:54:58;;;;;;;22.45;10.25;;;384.10;2329.60;;;;;;5010071;28;20389;-69
2021/10/06 09:57:30;;;;;;;15.45;9.00;;;384.20;2329.60;;;;;;5010602;28;20372;-69
2021/10/06 10:00:09;;;;;;;25.60;10.02;;;384.10;2329.60;;;;;;5008961;28;20528;-69
2021/10/06 10:02:35;;;;;;;17.20;9.20;;;384.20;2329.60;;;;;;5009560;28;20113;-69
2021/10/06 10:05:03;;;;;;;27.70;9.73;;;384.30;2329.60;;;;;;5010296;28;20323;-68
2021/10/06 10:07:29;;;;;;;34.22;11.25;;;384.30;2329.60;;;;;;5010835;28;20084;-68
2021/10/06 10:09:55;;;;;;;19.05;10.23;;;384.40;2329.60;;;;;;5009984;28;20033;-68
2021/10/06 10:12:26;;;;;;;25.02;9.35;;;384.40;2329.60;;;;;;4993813;28;20030;-69
2021/10/06 10:14:52;;;;;;;16.25;9.20;;;384.60;2329.60;;;;;;5011406;28;20022;-69
2021/10/06 10:17:19;;;;;;;20.48;9.90;;;384.70;2329.60;;;;;;5038674;28;20039;-69
2021/10/06 10:19:51;;;;;;;20.50;8.75;;;384.90;2329.60;;;;;;5047407;28;20422;-69
2021/10/06 10:22:19;;;;;;;21.13;11.60;;;409.60;2355.20;;;;;;5031375;28;20090;-68
2021/10/06 10:24:47;;;;;;;23.88;9.43;;;409.80;2355.20;;;;;;5050630;28;20028;-69
2021/10/06 10:27:20;;;;;;;13.43;8.30;;;409.90;2355.20;;;;;;5050136;28;20079;-69
2021/10/06 10:30:02;;;;;;;16.65;8.35;;;410.10;2355.20;;;;;;5049542;28;20345;-68
2021/10/06 10:32:42;;;;;;;18.08;9.20;;;410.20;2355.20;;;;;;5031118;28;20037;-68
2021/10/06 10:35:11;;;;;;;18.90;8.70;;;410.20;2355.20;;;;;;5049623;28;20017;-69
2021/10/06 10:37:47;;;;;;;19.80;7.93;;;410.30;2355.20;;;;;;5048141;28;20025;-69
2021/10/06 10:40:33;;;;;;;14.50;8.40;;;410.30;2355.20;;;;;;5032416;28;20480;-68
2021/10/06 10:43:13;;;;;;;14.48;8.45;;;410.40;2355.20;;;;;;5030613;28;20037;-68
2021/10/06 10:45:49;;;;;;;16.48;8.10;;;410.40;2355.20;;;;;;5027991;28;20105;-69
2021/10/06 10:48:18;;;;;;;22.17;8.45;;;410.40;2355.20;;;;;;5047029;28;20074;-69
2021/10/06 10:50:43;;;;;;;16.48;9.23;;;410.40;2355.20;;;;;;5049877;28;20021;-69
2021/10/06 10:53:11;;;;;;;15.73;7.78;;;410.50;2355.20;;;;;;5050214;28;20036;-69
2021/10/06 10:55:44;;;;;;;17.40;9.30;;;410.50;2355.20;;;;;;5049802;28;20025;-69
2021/10/06 10:58:33;;;;;;;14.52;10.07;;;435.30;2355.20;;;;;;5030142;28;20025;-68
2021/10/06 11:01:07;;;;;;;14.43;7.70;;;435.40;2355.20;;;;;;5069798;28;20017;-69
2021/10/06 11:03:53;;;;;;;16.75;8.25;;;435.40;2355.20;;;;;;5067062;28;20029;-70
2021/10/06 11:06:46;;;;;;;10.35;7.55;;;435.50;2355.20;;;;;;5030754;28;20032;-69
2021/10/06 11:09:30;;;;;;;12.50;7.68;;;435.40;2355.20;;;;;;5047377;28;20047;-69
2021/10/06 11:12:05;;;;;;;18.40;9.23;;;435.40;2355.20;;;;;;5050525;28;20127;-69
2021/10/06 11:14:36;;;;;;;16.88;7.47;;;435.40;2355.20;;;;;;5044425;28;20036;-69
2021/10/06 11:17:18;;;;;;;21.73;8.20;;;435.40;2355.20;;;;;;5045624;28;20059;-69
2021/10/06 11:19:55;;;;;;;19.52;7.38;;;435.40;2355.20;;;;;;5046717;28;20078;-69
2021/10/06 11:22:23;;;;;;;15.43;7.68;;;435.30;2355.20;;;;;;5029489;28;20052;-69
2021/10/06 11:25:01;;;;;;;12.20;7.40;;;435.40;2355.20;;;;;;5038274;28;20581;-69
2021/10/06 11:27:42;;;;;;;15.25;7.68;;;435.20;2355.20;;;;;;5048189;28;20040;-69
2021/10/06 11:30:11;;;;;;;16.90;7.88;;;435.20;2355.20;;;;;;5030636;28;20052;-69
2021/10/06 11:32:52;;;;;;;18.08;6.70;;;435.20;2355.20;;;;;;5046240;28;20103;-69
2021/10/06 11:35:19;;;;;;;21.65;8.07;;;435.20;2355.20;;;;;;5049984;28;20082;-69
2021/10/06 11:37:45;;;;;;;16.42;7.45;;;435.20;2355.20;;;;;;5048578;28;20024;-69
2021/10/06 11:40:16;;;;;;;22.58;8.55;;;435.40;2355.20;;;;;;5048498;28;20039;-69
2021/10/06 11:42:42;;;;;;;25.48;6.88;;;435.40;2355.20;;;;;;5028775;28;20037;-69
2021/10/06 11:45:23;;;;;;;23.38;7.90;;;435.50;2355.20;;;;;;5031498;28;20499;-69
2021/10/06 11:47:48;;;;;;;17.45;8.38;;;435.60;2355.20;;;;;;5047187;28;20070;-69
2021/10/06 11:50:14;;;;;;;21.58;8.45;;;435.70;2355.20;;;;;;5046970;28;20029;-68
2021/10/06 11:52:40;;;;;;;26.67;9.70;;;435.80;2355.20;;;;;;5031013;28;20032;-68
2021/10/06 11:55:07;;;;;;;22.10;8.98;;;435.90;2355.20;;;;;;5046047;28;20063;-68
2021/10/06 11:57:33;;;;;;;28.88;9.05;;;435.90;2355.20;;;;;;5048118;28;20017;-68
2021/10/06 11:59:59;;;;;;;31.02;7.60;;;435.90;2355.20;;;;;;5045527;28;20104;-68
2021/10/06 12:02:24;;;;;;;22.90;9.02;;;435.90;2355.20;;;;;;5046906;28;20025;-68
2021/10/06 12:04:55;;;;;;;16.77;8.18;;;435.90;2355.20;;;;;;5048776;28;20542;-68
2021/10/06 12:07:25;;;;;;;17.25;8.48;;;436.00;2355.20;;;;;;5045254;28;20031;-69
2021/10/06 12:09:52;;;;;;;21.92;8.57;;;436.00;2355.20;;;;;;5048961;28;20116;-69
2021/10/06 12:12:41;;;;;;;14.73;7.60;;;436.00;2355.20;;;;;;5030763;28;20118;-69